createdAt,value
2019-04-21T00:01:41.998Z,8.90
2019-04-21T00:07:05.807Z,8.30
2019-04-21T00:12:07.507Z,7.87
2019-04-21T00:16:59.694Z,7.90
2019-04-21T00:22:05.848Z,8.40
2019-04-21T00:27:18.735Z,8.30
2019-04-21T00:32:20.732Z,9.00
2019-04-21T00:37:17.982Z,11.17
2019-04-21T00:42:29.192Z,7.63
2019-04-21T00:47:34.022Z,9.37
2019-04-21T00:52:58.238Z,8.03
2019-04-21T00:58:00.066Z,7.10
2019-04-21T01:03:00.950Z,10.90
2019-04-21T01:08:02.490Z,8.10
2019-04-21T01:13:14.291Z,9.80
2019-04-21T01:18:09.003Z,8.80
2019-04-21T01:22:54.042Z,8.00
2019-04-21T01:28:13.618Z,13.67
2019-04-21T01:33:26.327Z,7.93
2019-04-21T01:38:31.607Z,9.37
2019-04-21T01:43:29.321Z,7.33
2019-04-21T01:48:33.258Z,7.17
2019-04-21T01:53:53.280Z,7.77
2019-04-21T01:58:39.777Z,6.83
2019-04-21T02:09:02.140Z,11.67
2019-04-21T02:14:16.040Z,8.10
2019-04-21T02:19:00.828Z,8.77
2019-04-21T02:24:13.234Z,7.73
2019-04-21T02:29:19.523Z,10.90
2019-04-21T02:34:25.893Z,7.60
2019-04-21T02:39:35.547Z,8.77
2019-04-21T02:44:46.258Z,7.33
2019-04-21T02:49:57.234Z,8.23
2019-04-21T02:59:58.938Z,7.30
2019-04-21T03:05:11.677Z,9.37
2019-04-21T03:10:12.280Z,7.47
2019-04-21T03:15:23.472Z,10.43
2019-04-21T03:20:23.427Z,8.10
2019-04-21T03:30:45.074Z,7.87
2019-04-21T03:40:32.390Z,12.07
2019-04-21T03:45:46.726Z,8.43
2019-04-21T03:50:39.547Z,10.43
2019-04-21T04:06:28.175Z,10.83
2019-04-21T04:11:43.359Z,11.37
2019-04-21T04:16:37.954Z,8.70
2019-04-21T04:21:47.678Z,7.33
2019-04-21T04:26:47.197Z,7.27
2019-04-21T04:31:43.965Z,10.73
2019-04-21T04:42:16.269Z,8.63
2019-04-21T04:47:12.311Z,8.63
2019-04-21T04:52:31.287Z,9.67
2019-04-21T04:57:39.580Z,13.33
2019-04-21T05:07:34.282Z,9.53
2019-04-21T05:12:22.695Z,11.63
2019-04-21T05:17:38.331Z,10.73
2019-04-21T05:22:30.628Z,15.20
2019-04-21T05:27:45.104Z,10.20
2019-04-21T05:33:20.480Z,9.33
2019-04-21T05:38:27.438Z,11.87
2019-04-21T05:43:32.773Z,9.20
2019-04-21T05:48:46.923Z,8.90
2019-04-21T05:53:50.030Z,10.37
2019-04-21T05:58:48.242Z,9.53
2019-04-21T06:03:57.130Z,9.07
2019-04-21T06:09:04.961Z,10.50
2019-04-21T06:14:08.068Z,7.97
2019-04-21T06:19:13.766Z,10.13
2019-04-21T06:24:15.944Z,17.43
2019-04-21T06:29:15.214Z,8.13
2019-04-21T06:34:24.928Z,9.63
2019-04-21T06:39:30.720Z,8.97
2019-04-21T06:44:46.839Z,12.17
2019-04-21T06:49:40.129Z,11.83
2019-04-21T06:54:47.746Z,9.30
2019-04-21T06:59:43.620Z,10.10
2019-04-21T07:04:54.758Z,8.87
2019-04-21T07:09:57.266Z,13.47
2019-04-21T07:15:01.996Z,10.07
2019-04-21T07:20:07.392Z,13.97
2019-04-21T07:25:10.460Z,13.30
2019-04-21T07:30:16.424Z,9.13
2019-04-21T07:35:17.905Z,10.47
2019-04-21T07:40:14.972Z,11.07
2019-04-21T07:45:19.537Z,13.07
2019-04-21T07:50:46.366Z,14.20
2019-04-21T07:55:30.708Z,11.73
2019-04-21T08:00:56.283Z,11.20
2019-04-21T08:06:08.876Z,11.20
2019-04-21T08:11:04.542Z,13.13
2019-04-21T08:16:10.981Z,10.00
2019-04-21T08:21:11.096Z,10.80
2019-04-21T08:26:17.411Z,10.50
2019-04-21T08:31:25.852Z,11.30
2019-04-21T08:41:27.062Z,8.90
2019-04-21T08:46:32.487Z,9.63
2019-04-21T08:51:47.318Z,11.57
2019-04-21T08:57:01.444Z,7.17
2019-04-21T09:02:06.489Z,8.33
2019-04-21T09:07:16.272Z,9.30
2019-04-21T09:12:18.861Z,10.13
2019-04-21T09:17:17.705Z,6.70
2019-04-21T09:22:26.892Z,7.97
2019-04-21T09:27:29.296Z,8.17
2019-04-21T09:32:18.322Z,6.77
2019-04-21T09:37:28.663Z,5.93
2019-04-21T09:42:21.961Z,11.80
2019-04-21T09:47:35.060Z,7.30
2019-04-21T09:52:37.579Z,6.07
2019-04-21T09:57:41.472Z,6.57
2019-04-21T10:02:48.251Z,8.73
2019-04-21T10:07:43.809Z,6.10
2019-04-21T10:12:45.389Z,7.53
2019-04-21T10:17:54.106Z,6.20
2019-04-21T10:22:57.213Z,6.00
2019-04-21T10:27:59.411Z,6.40
2019-04-21T10:33:01.372Z,6.33
2019-04-21T10:38:16.974Z,5.70
2019-04-21T10:43:10.096Z,7.43
2019-04-21T10:48:12.810Z,6.03
2019-04-21T10:53:20.744Z,5.83
2019-04-21T10:58:32.136Z,7.17
2019-04-21T11:03:40.506Z,6.77
2019-04-21T11:08:45.743Z,4.70
2019-04-21T11:13:46.982Z,9.67
2019-04-21T11:18:49.216Z,8.33
2019-04-21T11:23:52.206Z,6.73
2019-04-21T11:28:56.838Z,4.47
2019-04-21T11:33:59.197Z,4.77
2019-04-21T11:39:35.314Z,7.77
2019-04-21T11:44:28.914Z,4.43
2019-04-21T11:49:32.488Z,4.60
2019-04-21T11:54:35.164Z,4.63
2019-04-21T11:59:37.601Z,5.77
2019-04-21T12:04:39.741Z,5.03
2019-04-21T12:09:42.016Z,5.13
2019-04-21T12:14:45.811Z,5.93
2019-04-21T12:19:48.524Z,4.50
2019-04-21T12:24:51.293Z,5.47
2019-04-21T12:29:53.613Z,4.93
2019-04-21T12:34:55.902Z,6.17
2019-04-21T12:39:58.995Z,5.27
2019-04-21T12:45:01.414Z,4.13
2019-04-21T12:50:04.613Z,4.20
2019-04-21T12:55:07.218Z,20.00
2019-04-21T13:00:13.096Z,4.27
2019-04-21T13:05:15.814Z,4.30
2019-04-21T13:10:20.103Z,5.57
2019-04-21T13:15:22.133Z,4.10
2019-04-21T13:20:25.423Z,5.50
2019-04-21T13:25:27.935Z,4.20
2019-04-21T13:30:30.554Z,4.10
2019-04-21T13:35:33.151Z,3.97
2019-04-21T13:41:03.736Z,4.57
2019-04-21T13:45:50.319Z,4.00
2019-04-21T13:50:53.463Z,4.10
2019-04-21T13:55:56.418Z,5.30
2019-04-21T14:00:59.954Z,3.93
2019-04-21T14:06:02.533Z,4.50
2019-04-21T14:11:23.576Z,4.13
2019-04-21T14:16:26.802Z,4.07
2019-04-21T14:21:29.429Z,4.03
2019-04-21T14:26:32.186Z,4.97
2019-04-21T14:31:34.780Z,6.70
2019-04-21T14:36:38.865Z,4.07
2019-04-21T14:41:42.201Z,7.10
2019-04-21T14:47:05.034Z,3.57
2019-04-21T14:52:14.935Z,3.70
2019-04-21T14:57:16.833Z,6.23
2019-04-21T15:02:20.259Z,4.77
2019-04-21T15:07:23.444Z,4.33
2019-04-21T15:12:25.849Z,4.13
2019-04-21T15:17:29.366Z,5.27
2019-04-21T15:22:32.341Z,3.50
2019-04-21T15:27:34.974Z,4.47
2019-04-21T15:32:38.180Z,4.53
2019-04-21T15:37:40.032Z,4.00
2019-04-21T15:42:44.200Z,3.67
2019-04-21T15:47:47.650Z,6.37
2019-04-21T15:52:51.753Z,4.53
2019-04-21T15:58:14.380Z,5.47
2019-04-21T16:03:16.695Z,5.27
2019-04-21T16:08:20.441Z,3.67
2019-04-21T16:13:23.659Z,3.70
2019-04-21T16:18:25.601Z,3.80
2019-04-21T16:23:28.654Z,3.73
2019-04-21T16:28:31.166Z,4.40
2019-04-21T16:33:33.677Z,4.07
2019-04-21T16:38:35.895Z,4.50
2019-04-21T16:43:38.099Z,4.57
2019-04-21T16:48:40.199Z,3.80
2019-04-21T16:53:48.057Z,4.53
2019-04-21T16:58:54.718Z,7.73
2019-04-21T17:03:58.366Z,5.63
2019-04-21T17:09:00.983Z,4.87
2019-04-21T17:14:05.773Z,4.17
2019-04-21T17:19:14.522Z,4.33
2019-04-21T17:24:12.746Z,7.20
2019-04-21T17:29:14.841Z,4.23
2019-04-21T17:34:21.781Z,5.47
2019-04-21T17:39:22.742Z,10.40
2019-04-21T17:44:25.698Z,38.63
2019-04-21T17:49:30.941Z,7.73
2019-04-21T17:54:43.627Z,6.37
2019-04-21T18:00:04.365Z,6.80
2019-04-21T18:05:09.011Z,6.03
2019-04-21T18:10:19.322Z,9.03
2019-04-21T18:15:02.423Z,6.00
2019-04-21T18:19:57.225Z,7.87
2019-04-21T18:25:06.962Z,6.77
2019-04-21T18:30:42.477Z,8.40
2019-04-21T18:36:05.127Z,8.57
2019-04-21T18:41:09.794Z,5.73
2019-04-21T18:46:58.349Z,7.57
2019-04-21T18:51:57.194Z,7.63
2019-04-21T18:57:03.242Z,6.83
2019-04-21T19:02:02.009Z,9.30
2019-04-21T19:07:12.722Z,14.53
2019-04-21T19:12:35.613Z,13.30
2019-04-21T19:22:34.182Z,16.00
2019-04-21T19:27:43.980Z,14.33
2019-04-21T19:32:41.316Z,20.37
2019-04-21T19:37:38.870Z,17.37
2019-04-21T19:42:42.822Z,20.90
2019-04-21T19:47:56.581Z,18.77
2019-04-21T19:52:51.971Z,19.37
2019-04-21T19:57:47.270Z,24.43
2019-04-21T20:02:50.455Z,24.67
2019-04-21T20:08:11.396Z,22.97
2019-04-21T20:13:33.416Z,29.03
2019-04-21T20:18:15.493Z,27.47
2019-04-21T20:23:13.181Z,33.57
2019-04-21T20:28:21.227Z,23.03
2019-04-21T20:33:48.757Z,24.33
2019-04-21T20:38:34.052Z,23.50
2019-04-21T20:43:44.042Z,21.90
2019-04-21T20:48:43.861Z,22.63
2019-04-21T20:53:45.310Z,17.00
2019-04-21T20:58:50.284Z,17.07
2019-04-21T21:03:54.097Z,20.70
2019-04-21T21:09:03.250Z,13.17
2019-04-21T21:14:07.044Z,12.70
2019-04-21T21:19:18.156Z,10.07
2019-04-21T21:24:08.709Z,8.83
2019-04-21T21:29:18.503Z,8.17
2019-04-21T21:34:40.584Z,9.27
2019-04-21T21:39:24.619Z,8.00
2019-04-21T21:44:17.861Z,10.73
2019-04-21T21:49:30.274Z,13.87
2019-04-21T21:54:19.970Z,7.67
2019-04-21T21:59:27.769Z,9.83
2019-04-21T22:04:32.051Z,6.97
2019-04-21T22:09:32.577Z,6.53
2019-04-21T22:14:41.599Z,7.50
2019-04-21T22:20:03.752Z,5.60
2019-04-21T22:24:53.372Z,5.77
2019-04-21T22:29:51.406Z,12.37
2019-04-21T22:34:56.502Z,6.50
2019-04-21T22:40:11.231Z,7.17
2019-04-21T22:44:59.129Z,5.87
2019-04-21T22:50:02.666Z,6.93
2019-04-21T22:55:13.267Z,6.93
2019-04-21T23:00:13.304Z,10.17
2019-04-21T23:05:21.176Z,8.43
2019-04-21T23:10:21.569Z,7.00
2019-04-21T23:15:34.499Z,5.57
2019-04-21T23:20:47.979Z,5.17
2019-04-21T23:25:45.911Z,5.87
2019-04-21T23:31:04.602Z,6.10
2019-04-21T23:35:44.246Z,6.43
2019-04-21T23:40:47.598Z,6.83
2019-04-21T23:45:50.230Z,8.37
2019-04-21T23:51:01.849Z,8.27
2019-04-21T23:55:57.085Z,7.67
